Terminal Aerodrome Forecast
Issued by NWS

Home | Current Version | Previous Version | Text Only | Print | Product List | Glossary On
Versions: 1 2 3 4 5 6 7 8 9 10 11 12 13 14 15 16 17 18
000
FTUS43 KLSX 300800 AAA
TAFCPS
TAF AMD
KCPS 300823Z 3008/3106 VRB04KT 5SM -SHRA VCTS SCT011 OVC040CB
      TEMPO 3008/3010 2SM TSRA OVC011CB
     FM301100 15008KT 5SM -SHRA BR OVC015
     FM301800 36011KT P6SM -RA OVC015
     FM310000 34011KT P6SM OVC010=

USA.gov is the U.S. government's official web portal to all federal, state and local government web resources and services.